Aviation Digital Data Service (ADDS)

Output produced by TAFs form (0605 UTC 29 August 2015)
found at http://aviationweather.gov/adds/tafs/
 
KTEX 290528Z 2906/3006 13005KT P6SM SKC 
     FM291800 27005KT P6SM FEW100 
     FM292000 20005KT P6SM SCT100 
     FM300200 13005KT P6SM FEW100